Yakutat, Alaska
Current Conditions -  °F | °C
As of 2:53 PM on Monday 22 Dec 2014 (Local Time) from PAYA Reporting Station
Broken Clouds Broken Clouds  
Wind Chill: 35°   Ceiling: 2200
Heat Index: 40°   Visibility: 10mi
Dew Point: 39°   Wind: 7mph
Humidity: 97%   Direction: 90°E
Pressure: 29.97"   Gusts: NA
Location:  59.54°N, 139.73°W
Report Text: PAYA 222353Z 09006KT 10SM BKN022 BKN037 BKN050 04/04 A2997 RMK SLP150 60002 T00440039 10067 20033 51007
Loading
Personal Weather Stations






























Interactive Weather Map New forecast layout! Learn more

10-Day Weather Forecast

Advertisements
Track Severe Weather on mobile